createdAt,value
2019-03-26T00:00:41.089Z,-0.8
2019-03-26T00:01:31.964Z,-0.8
2019-03-26T00:02:22.850Z,-0.8
2019-03-26T00:03:13.777Z,-0.8
2019-03-26T00:04:05.950Z,-0.8
2019-03-26T00:04:57.129Z,-0.7
2019-03-26T00:05:48.002Z,-0.8
2019-03-26T00:06:38.870Z,-0.7
2019-03-26T00:07:29.755Z,-0.6
2019-03-26T00:08:20.665Z,-0.7
2019-03-26T00:09:11.533Z,-0.7
2019-03-26T00:10:02.404Z,-0.7
2019-03-26T00:10:53.270Z,-0.8
2019-03-26T00:11:44.139Z,-0.7
2019-03-26T00:12:35.010Z,-0.6
2019-03-26T00:13:25.906Z,-0.7
2019-03-26T00:14:16.777Z,-0.8
2019-03-26T00:15:07.648Z,-0.8
2019-03-26T00:15:58.518Z,-0.8
2019-03-26T00:16:49.389Z,-0.8
2019-03-26T00:17:40.256Z,-0.9
2019-03-26T00:18:31.153Z,-0.8
2019-03-26T00:19:22.022Z,-0.8
2019-03-26T00:20:12.893Z,-0.9
2019-03-26T00:21:03.766Z,-0.9
2019-03-26T00:21:54.649Z,-0.9
2019-03-26T00:22:45.523Z,-0.6
2019-03-26T00:23:36.425Z,-0.6
2019-03-26T00:24:27.299Z,-0.6
2019-03-26T00:25:18.174Z,-0.6
2019-03-26T00:26:09.048Z,-0.6
2019-03-26T00:26:59.915Z,-0.4
2019-03-26T00:27:50.781Z,-0.4
2019-03-26T00:28:41.678Z,-0.4
2019-03-26T00:29:32.554Z,-0.4
2019-03-26T00:30:23.499Z,-0.3
2019-03-26T00:31:14.367Z,-0.3
2019-03-26T00:32:05.233Z,-0.4
2019-03-26T00:32:56.101Z,-0.5
2019-03-26T00:33:47.002Z,-0.6
2019-03-26T00:34:37.870Z,-0.3
2019-03-26T00:35:28.738Z,-0.3
2019-03-26T00:36:19.614Z,-0.2
2019-03-26T00:37:10.483Z,-0.1
2019-03-26T00:38:01.353Z,-0.1
2019-03-26T00:38:52.249Z,-0.1
2019-03-26T00:39:43.126Z,-0.1
2019-03-26T00:40:33.999Z,-0.2
2019-03-26T00:41:24.865Z,-0.3
2019-03-26T00:42:15.734Z,-0.3
2019-03-26T00:43:06.604Z,-0.3
2019-03-26T00:43:57.503Z,-0.1
2019-03-26T00:44:48.370Z,-0.2
2019-03-26T00:45:39.239Z,-0.2
2019-03-26T00:46:30.112Z,-0.2
2019-03-26T00:47:20.984Z,-0.3
2019-03-26T00:48:11.853Z,-0.3
2019-03-26T00:49:02.755Z,-0.2
2019-03-26T00:49:53.653Z,-0.3
2019-03-26T00:50:44.529Z,-0.3
2019-03-26T00:51:35.405Z,-0.3
2019-03-26T00:52:26.267Z,-0.4
2019-03-26T00:53:17.134Z,-0.4
2019-03-26T00:54:08.033Z,-0.4
2019-03-26T00:54:58.907Z,-0.3
2019-03-26T00:55:49.773Z,-0.3
2019-03-26T00:56:40.641Z,-0.3
2019-03-26T00:57:31.513Z,-0.3
2019-03-26T00:58:22.383Z,-0.3
2019-03-26T00:59:13.302Z,-0.3
2019-03-26T01:00:04.173Z,-0.4
2019-03-26T01:00:55.037Z,-0.3
2019-03-26T01:01:45.908Z,-0.3
2019-03-26T01:02:36.773Z,-0.3
2019-03-26T01:03:27.642Z,-0.1
2019-03-26T01:04:31.745Z,-0.3
2019-03-26T01:05:14.342Z,-0.3
2019-03-26T01:06:05.212Z,-0.3
2019-03-26T01:06:56.086Z,-0.2
2019-03-26T01:07:46.951Z,-0.2
2019-03-26T01:08:37.824Z,-0.3
2019-03-26T01:09:28.720Z,-0.3
2019-03-26T01:10:19.586Z,-0.3
2019-03-26T01:11:10.457Z,-0.4
2019-03-26T01:12:01.324Z,-0.4
2019-03-26T01:12:52.192Z,-0.3
2019-03-26T01:13:43.056Z,-0.4
2019-03-26T01:14:33.957Z,-0.5
2019-03-26T01:15:24.826Z,-0.4
2019-03-26T01:16:15.697Z,-0.5
2019-03-26T01:17:06.571Z,-0.5
2019-03-26T01:17:57.443Z,-0.5
2019-03-26T01:18:48.313Z,-0.5
2019-03-26T01:19:39.214Z,-0.4
2019-03-26T01:20:30.084Z,-0.2
2019-03-26T01:21:20.953Z,-0.3
2019-03-26T01:22:11.822Z,-0.4
2019-03-26T01:23:02.690Z,-0.6
2019-03-26T01:23:53.554Z,-0.6
2019-03-26T01:24:44.454Z,-0.6
2019-03-26T01:25:35.323Z,-0.6
2019-03-26T01:26:26.192Z,-0.4
2019-03-26T01:27:17.073Z,-0.4
2019-03-26T01:28:07.943Z,-0.2
2019-03-26T01:28:58.814Z,-0.1
2019-03-26T01:29:49.725Z,-0.1
2019-03-26T01:30:40.597Z,-0.1
2019-03-26T01:31:31.463Z,-0.1
2019-03-26T01:32:22.331Z,-0.1
2019-03-26T01:33:13.207Z,-0.2
2019-03-26T01:34:04.075Z,-0.2
2019-03-26T01:34:54.947Z,-0.1
2019-03-26T01:35:45.846Z,-0.1
2019-03-26T01:36:36.726Z,-0.1
2019-03-26T01:37:27.596Z,-0.1
2019-03-26T01:38:18.472Z,-0.1
2019-03-26T01:39:09.415Z,0
2019-03-26T01:40:00.347Z,0
2019-03-26T01:40:51.356Z,0.1
2019-03-26T01:41:42.221Z,0.2
2019-03-26T01:42:33.088Z,0.3
2019-03-26T01:43:23.955Z,0.2
2019-03-26T01:44:14.821Z,0.1
2019-03-26T01:45:05.692Z,0.2
2019-03-26T01:45:56.588Z,0.1
2019-03-26T01:46:47.455Z,0.1
2019-03-26T01:47:38.322Z,0.1
2019-03-26T01:48:29.187Z,0.2
2019-03-26T01:49:20.059Z,0.2
2019-03-26T01:50:10.929Z,0.1
2019-03-26T01:51:01.823Z,0.3
2019-03-26T01:51:52.744Z,0.3
2019-03-26T01:52:43.625Z,0.3
2019-03-26T01:53:34.498Z,0.5
2019-03-26T01:54:25.365Z,0.6
2019-03-26T01:55:16.231Z,0.8
2019-03-26T01:56:07.125Z,0.8
2019-03-26T01:56:57.990Z,0.8
2019-03-26T01:57:48.859Z,0.7
2019-03-26T01:58:44.730Z,0.6
2019-03-26T01:59:35.603Z,0.6
2019-03-26T02:00:26.472Z,0.7
2019-03-26T02:01:17.455Z,0.9
2019-03-26T02:02:08.323Z,1.1
2019-03-26T02:02:59.188Z,1.3
2019-03-26T02:03:50.151Z,1.3
2019-03-26T02:04:41.018Z,1.3
2019-03-26T02:05:31.885Z,1.1
2019-03-26T02:06:22.790Z,1.1
2019-03-26T02:07:13.659Z,1.1
2019-03-26T02:08:04.529Z,1.3
2019-03-26T02:08:55.398Z,1.4
2019-03-26T02:09:46.277Z,1.5
2019-03-26T02:10:37.144Z,1.7
2019-03-26T02:11:28.041Z,1.8
2019-03-26T02:12:18.907Z,1.9
2019-03-26T02:13:09.778Z,1.9
2019-03-26T02:14:00.650Z,1.9
2019-03-26T02:14:51.519Z,2
2019-03-26T02:15:42.385Z,2.1
2019-03-26T02:16:33.284Z,2.2
2019-03-26T02:17:24.158Z,2.2
2019-03-26T02:18:15.027Z,2.2
2019-03-26T02:19:05.895Z,2.1
2019-03-26T02:19:56.757Z,2.1
2019-03-26T02:20:47.633Z,1.9
2019-03-26T02:21:38.529Z,1.9
2019-03-26T02:22:29.401Z,1.8
2019-03-26T02:23:20.273Z,1.8
2019-03-26T02:24:11.145Z,1.6
2019-03-26T02:25:02.015Z,1.6
2019-03-26T02:25:52.887Z,1.6
2019-03-26T02:26:43.779Z,1.6
2019-03-26T02:27:34.645Z,1.7
2019-03-26T02:28:25.513Z,1.7
2019-03-26T02:29:16.380Z,1.8
2019-03-26T02:30:07.247Z,1.9
2019-03-26T02:30:58.117Z,1.9
2019-03-26T02:31:49.018Z,2.1
2019-03-26T02:32:39.887Z,2.1
2019-03-26T02:33:30.755Z,2.2
2019-03-26T02:34:21.627Z,2.4
2019-03-26T02:35:18.054Z,2.5
2019-03-26T02:36:08.306Z,2.6
2019-03-26T02:36:59.218Z,2.6
2019-03-26T02:37:50.084Z,2.7
2019-03-26T02:38:40.952Z,2.7
2019-03-26T02:39:31.821Z,2.7
2019-03-26T02:40:22.696Z,2.8
2019-03-26T02:41:13.562Z,2.8
2019-03-26T02:42:04.478Z,2.7
2019-03-26T02:42:55.349Z,2.7
2019-03-26T02:43:46.220Z,2.7
2019-03-26T02:44:37.092Z,2.7
2019-03-26T02:45:27.961Z,2.7
2019-03-26T02:46:18.831Z,2.6
2019-03-26T02:47:09.709Z,2.7
2019-03-26T02:48:00.615Z,2.7
2019-03-26T02:48:51.484Z,2.8
2019-03-26T02:49:42.363Z,2.8
2019-03-26T02:50:33.243Z,2.9
2019-03-26T02:51:24.116Z,2.9
2019-03-26T02:52:14.989Z,2.9
2019-03-26T02:53:08.609Z,2.9
2019-03-26T02:53:59.707Z,2.9
2019-03-26T02:54:50.584Z,2.9
2019-03-26T02:55:41.472Z,2.9
2019-03-26T02:56:32.357Z,2.8
2019-03-26T02:57:23.252Z,2.8
2019-03-26T02:58:14.124Z,2.8
2019-03-26T02:59:04.995Z,2.8
2019-03-26T02:59:55.867Z,2.8
2019-03-26T03:00:46.751Z,2.8
2019-03-26T03:01:37.620Z,2.8
2019-03-26T03:02:28.538Z,2.7
2019-03-26T03:03:19.413Z,2.7
2019-03-26T03:04:10.291Z,2.7
2019-03-26T03:05:01.164Z,2.6
2019-03-26T03:05:52.057Z,2.6
2019-03-26T03:06:42.926Z,2.6
2019-03-26T03:07:33.798Z,2.6
2019-03-26T03:08:24.702Z,2.6
2019-03-26T03:09:15.571Z,2.6
2019-03-26T03:10:06.441Z,2.6
2019-03-26T03:10:57.317Z,2.6
2019-03-26T03:11:48.278Z,2.4
2019-03-26T03:12:39.163Z,2.4
2019-03-26T03:13:30.144Z,2.2
2019-03-26T03:14:21.040Z,2
2019-03-26T03:15:11.907Z,1.8
2019-03-26T03:16:02.774Z,1.6
2019-03-26T03:16:53.655Z,1.4
2019-03-26T03:17:44.520Z,1.4
2019-03-26T03:18:35.418Z,1.3
2019-03-26T03:19:26.293Z,1.3
2019-03-26T03:20:17.162Z,1.3
2019-03-26T03:21:08.041Z,1.3
2019-03-26T03:21:58.919Z,1.4
2019-03-26T03:22:49.792Z,1.6
2019-03-26T03:23:40.700Z,1.7
2019-03-26T03:24:31.583Z,1.9
2019-03-26T03:25:22.461Z,1.9
2019-03-26T03:26:13.331Z,1.9
2019-03-26T03:27:04.206Z,2
2019-03-26T03:27:55.078Z,2.1
2019-03-26T03:28:45.981Z,2.3
2019-03-26T03:29:36.852Z,2.4
2019-03-26T03:30:27.719Z,2.5
2019-03-26T03:31:18.598Z,2.6
2019-03-26T03:32:09.593Z,2.6
2019-03-26T03:33:00.540Z,2.6
2019-03-26T03:33:51.454Z,2.6
2019-03-26T03:34:42.335Z,2.6
2019-03-26T03:35:33.233Z,2.5
2019-03-26T03:36:24.125Z,2.5
2019-03-26T03:37:14.999Z,2.5
2019-03-26T03:38:05.869Z,2.4
2019-03-26T03:38:56.767Z,2.4
2019-03-26T03:39:47.636Z,2.4
2019-03-26T03:40:38.506Z,2.2
2019-03-26T03:41:29.385Z,2.2
2019-03-26T03:42:20.261Z,2.3
2019-03-26T03:43:11.135Z,2.4
2019-03-26T03:44:02.036Z,2.5
2019-03-26T03:44:52.907Z,2.6
2019-03-26T03:45:43.784Z,2.6
2019-03-26T03:46:34.651Z,2.7
2019-03-26T03:47:25.524Z,2.7
2019-03-26T03:48:16.395Z,2.7
2019-03-26T03:49:07.292Z,2.6
2019-03-26T03:49:58.164Z,2.4
2019-03-26T03:50:49.035Z,2.3
2019-03-26T03:51:39.904Z,2.2
2019-03-26T03:52:30.776Z,2.1
2019-03-26T03:53:21.653Z,1.9
2019-03-26T03:54:12.561Z,1.9
2019-03-26T03:55:03.428Z,2.1
2019-03-26T03:55:54.295Z,2.1
2019-03-26T03:56:45.205Z,2.1
2019-03-26T03:57:36.073Z,2.2
2019-03-26T03:58:26.950Z,2.4
2019-03-26T03:59:17.854Z,2.5
2019-03-26T04:00:08.732Z,2.6
2019-03-26T04:00:59.609Z,2.6
2019-03-26T04:01:50.488Z,2.6
2019-03-26T04:02:41.353Z,2.6
2019-03-26T04:03:32.222Z,2.4
2019-03-26T04:04:23.135Z,2.2
2019-03-26T04:05:14.006Z,1.9
2019-03-26T04:06:09.262Z,1.8
2019-03-26T04:07:00.685Z,1.6
2019-03-26T04:07:51.553Z,1.6
2019-03-26T04:08:42.431Z,1.6
2019-03-26T04:09:33.338Z,1.4
2019-03-26T04:10:24.206Z,1.3
2019-03-26T04:11:15.075Z,1.3
2019-03-26T04:12:05.957Z,1.3
2019-03-26T04:12:56.834Z,1.2
2019-03-26T04:13:47.709Z,1.1
2019-03-26T04:14:38.609Z,1
2019-03-26T04:15:29.497Z,0.9
2019-03-26T04:16:20.393Z,0.9
2019-03-26T04:17:11.261Z,1
2019-03-26T04:18:02.131Z,1
2019-03-26T04:18:53.007Z,1
2019-03-26T04:19:43.905Z,1.1
2019-03-26T04:20:34.773Z,1.1
2019-03-26T04:21:25.645Z,1.1
2019-03-26T04:22:16.530Z,1.2
2019-03-26T04:23:07.396Z,1.1
2019-03-26T04:23:58.268Z,1.1
2019-03-26T04:24:49.171Z,1
2019-03-26T04:25:40.059Z,1.1
2019-03-26T04:26:30.935Z,1.1
2019-03-26T04:27:21.808Z,1.1
2019-03-26T04:28:12.676Z,1.2
2019-03-26T04:29:03.545Z,1.3
2019-03-26T04:29:54.450Z,1.2
2019-03-26T04:30:45.316Z,1.1
2019-03-26T04:31:36.185Z,1.1
2019-03-26T04:32:27.056Z,1.1
2019-03-26T04:33:17.926Z,1.2
2019-03-26T04:34:08.807Z,1.3
2019-03-26T04:34:59.706Z,1.3
2019-03-26T04:35:50.573Z,1.4
2019-03-26T04:36:41.448Z,1.3
2019-03-26T04:37:32.314Z,1.3
2019-03-26T04:38:23.185Z,1.4
2019-03-26T04:39:14.055Z,1.7
2019-03-26T04:40:04.987Z,1.8
2019-03-26T04:40:55.866Z,1.8
2019-03-26T04:41:46.740Z,1.8
2019-03-26T04:42:37.612Z,1.8
2019-03-26T04:43:28.487Z,1.9
2019-03-26T04:44:19.363Z,1.9
2019-03-26T04:45:10.234Z,2
2019-03-26T04:46:01.138Z,2.1
2019-03-26T04:46:52.018Z,2.3
2019-03-26T04:47:42.895Z,2.4
2019-03-26T04:48:33.767Z,2.3
2019-03-26T04:49:24.637Z,2.2
2019-03-26T04:50:15.552Z,2.1
2019-03-26T04:51:06.422Z,2.1
2019-03-26T04:51:57.297Z,2.1
2019-03-26T04:52:48.168Z,2.1
2019-03-26T04:53:39.037Z,2.1
2019-03-26T04:54:29.902Z,2.1
2019-03-26T04:55:20.800Z,2.2
2019-03-26T04:56:11.664Z,2.3
2019-03-26T04:57:02.529Z,2.4
2019-03-26T04:57:53.436Z,2.6
2019-03-26T04:58:44.303Z,2.6
2019-03-26T04:59:35.176Z,2.7
2019-03-26T05:00:26.075Z,2.7
2019-03-26T05:01:16.943Z,2.9
2019-03-26T05:02:07.818Z,2.9
2019-03-26T05:02:58.686Z,2.9
2019-03-26T05:03:49.562Z,2.9
2019-03-26T05:04:40.427Z,2.9
2019-03-26T05:05:31.332Z,2.9
2019-03-26T05:06:22.205Z,2.9
2019-03-26T05:07:13.080Z,2.9
2019-03-26T05:08:03.953Z,2.9
2019-03-26T05:08:54.824Z,2.9
2019-03-26T05:09:45.692Z,2.9
2019-03-26T05:10:36.556Z,2.9
2019-03-26T05:11:27.452Z,2.8
2019-03-26T05:12:18.358Z,2.7
2019-03-26T05:13:09.230Z,2.6
2019-03-26T05:14:00.108Z,2.4
2019-03-26T05:14:50.983Z,2.4
2019-03-26T05:15:41.865Z,2.3
2019-03-26T05:16:32.767Z,2.2
2019-03-26T05:17:26.148Z,2.1
2019-03-26T05:18:17.050Z,2.1
2019-03-26T05:19:07.917Z,2.2
2019-03-26T05:19:58.788Z,2.3
2019-03-26T05:20:49.655Z,2.4
2019-03-26T05:21:40.587Z,2.6
2019-03-26T05:22:31.454Z,2.7
2019-03-26T05:23:22.339Z,2.7
2019-03-26T05:24:13.210Z,2.8
2019-03-26T05:25:04.079Z,2.9
2019-03-26T05:25:54.948Z,2.9
2019-03-26T05:26:45.848Z,2.9
2019-03-26T05:27:45.041Z,2.9
2019-03-26T05:28:32.546Z,2.9
2019-03-26T05:29:23.413Z,2.9
2019-03-26T05:30:14.277Z,2.9
2019-03-26T05:31:05.362Z,2.9
2019-03-26T05:31:56.231Z,2.8
2019-03-26T05:32:47.109Z,2.7
2019-03-26T05:33:37.977Z,2.7
2019-03-26T05:34:28.868Z,2.7
2019-03-26T05:35:19.733Z,2.6
2019-03-26T05:36:15.638Z,2.6
2019-03-26T05:37:06.508Z,2.6
2019-03-26T05:37:57.377Z,2.6
2019-03-26T05:38:48.246Z,2.6
2019-03-26T05:39:39.114Z,2.6
2019-03-26T05:40:29.984Z,2.7
2019-03-26T05:41:20.879Z,2.8
2019-03-26T05:42:11.747Z,2.9
2019-03-26T05:43:02.617Z,3.1
2019-03-26T05:43:53.494Z,3.2
2019-03-26T05:44:44.361Z,3.2
2019-03-26T05:45:35.227Z,3.2
2019-03-26T05:46:26.155Z,3.2
2019-03-26T05:47:17.023Z,3.2
2019-03-26T05:48:07.899Z,3.1
2019-03-26T05:48:58.766Z,3.1
2019-03-26T05:49:49.639Z,2.9
2019-03-26T05:50:40.511Z,2.8
2019-03-26T05:51:31.377Z,2.6
2019-03-26T05:52:22.279Z,2.6
2019-03-26T05:53:13.147Z,2.4
2019-03-26T05:54:04.018Z,2.4
2019-03-26T05:54:54.889Z,2.5
2019-03-26T05:55:45.759Z,2.4
2019-03-26T05:56:36.658Z,2.3
2019-03-26T05:57:27.526Z,2.2
2019-03-26T05:58:18.398Z,2.1
2019-03-26T05:59:09.268Z,2
2019-03-26T06:00:00.347Z,2
2019-03-26T06:00:51.291Z,1.9
2019-03-26T06:01:42.163Z,1.9
2019-03-26T06:02:33.060Z,1.9
2019-03-26T06:03:23.928Z,2
2019-03-26T06:04:14.794Z,2.1
2019-03-26T06:05:05.663Z,2.1
2019-03-26T06:05:56.531Z,2.1
2019-03-26T06:06:47.398Z,2.1
2019-03-26T06:07:38.295Z,2.1
2019-03-26T06:08:29.171Z,2.1
2019-03-26T06:09:20.038Z,2.1
2019-03-26T06:10:10.907Z,2.2
2019-03-26T06:11:01.778Z,2.3
2019-03-26T06:11:52.645Z,2.4
2019-03-26T06:12:43.536Z,2.4
2019-03-26T06:13:34.402Z,2.5
2019-03-26T06:14:25.275Z,2.7
2019-03-26T06:15:16.144Z,3.1
2019-03-26T06:16:07.019Z,3.5
2019-03-26T06:16:57.890Z,4.1
2019-03-26T06:17:48.786Z,4.7
2019-03-26T06:18:39.658Z,4.9
2019-03-26T06:19:30.526Z,4.9
2019-03-26T06:20:21.389Z,4.9
2019-03-26T06:21:12.255Z,4.7
2019-03-26T06:22:03.137Z,4.6
2019-03-26T06:22:54.042Z,4.2
2019-03-26T06:23:44.928Z,3.8
2019-03-26T06:24:35.795Z,3.4
2019-03-26T06:25:26.695Z,3.2
2019-03-26T06:26:17.565Z,3.1
2019-03-26T06:27:08.429Z,3.1
2019-03-26T06:27:59.329Z,3.1
2019-03-26T06:28:50.192Z,3.1
2019-03-26T06:29:41.061Z,3.1
2019-03-26T06:30:31.936Z,3.2
2019-03-26T06:31:22.806Z,3.2
2019-03-26T06:32:13.678Z,3.2
2019-03-26T06:33:04.581Z,3.2
2019-03-26T06:33:55.450Z,3.2
2019-03-26T06:34:46.320Z,3.2
2019-03-26T06:35:37.185Z,3.3
2019-03-26T06:36:28.056Z,3.6
2019-03-26T06:37:18.923Z,4
2019-03-26T06:38:09.821Z,4.5
2019-03-26T06:39:00.692Z,4.7
2019-03-26T06:39:51.557Z,4.8
2019-03-26T06:40:42.427Z,4.9
2019-03-26T06:41:33.296Z,5.2
2019-03-26T06:42:24.172Z,5.2
2019-03-26T06:43:15.077Z,5.2
2019-03-26T06:44:05.946Z,5.2
2019-03-26T06:44:56.820Z,5.2
2019-03-26T06:45:47.685Z,5.2
2019-03-26T06:46:38.553Z,5.2
2019-03-26T06:47:29.425Z,4.8
2019-03-26T06:48:20.334Z,4.5
2019-03-26T06:49:11.215Z,4.5
2019-03-26T06:50:02.107Z,4.8
2019-03-26T06:50:52.978Z,5.2
2019-03-26T06:51:43.848Z,5.1
2019-03-26T06:52:34.719Z,5.2
2019-03-26T06:53:25.619Z,5.2
2019-03-26T06:54:16.558Z,5.2
2019-03-26T06:55:07.466Z,5.2
2019-03-26T06:55:58.358Z,5.2
2019-03-26T06:56:49.253Z,5.2
2019-03-26T06:57:40.122Z,5.2
2019-03-26T06:58:31.012Z,5.2
2019-03-26T06:59:21.907Z,5.2
2019-03-26T07:00:12.780Z,5.2
2019-03-26T07:01:03.667Z,5.2
2019-03-26T07:01:54.539Z,5.1
2019-03-26T07:02:45.420Z,5.1
2019-03-26T07:03:36.319Z,5.2
2019-03-26T07:04:27.189Z,5.2
2019-03-26T07:05:18.053Z,5.2
2019-03-26T07:06:08.927Z,5.2
2019-03-26T07:06:59.792Z,5.2
2019-03-26T07:07:50.666Z,5.2
2019-03-26T07:08:41.561Z,5.2
2019-03-26T07:09:32.429Z,5.2
2019-03-26T07:10:23.295Z,5.2
2019-03-26T07:11:14.163Z,5.2
2019-03-26T07:12:07.665Z,5.2
2019-03-26T07:12:58.667Z,5.2
2019-03-26T07:13:49.568Z,5.2
2019-03-26T07:14:40.435Z,5.3
2019-03-26T07:15:31.299Z,5.2
2019-03-26T07:16:22.173Z,5.3
2019-03-26T07:17:13.051Z,5.2
2019-03-26T07:18:03.918Z,5.3
2019-03-26T07:18:54.821Z,5.3
2019-03-26T07:19:45.693Z,5.3
2019-03-26T07:20:36.558Z,5.3
2019-03-26T07:21:27.426Z,5.3
2019-03-26T07:22:18.295Z,5.3
2019-03-26T07:23:09.164Z,5.3
2019-03-26T07:24:00.088Z,5.3
2019-03-26T07:24:50.995Z,5.3
2019-03-26T07:25:41.860Z,5.3
2019-03-26T07:26:32.729Z,5.3
2019-03-26T07:27:23.594Z,5.3
2019-03-26T07:28:14.460Z,5.3
2019-03-26T07:29:05.371Z,5.3
2019-03-26T07:29:56.249Z,5.3
2019-03-26T07:30:47.112Z,5.4
2019-03-26T07:31:37.981Z,5.4
2019-03-26T07:32:28.846Z,5.4
2019-03-26T07:33:19.727Z,5.4
2019-03-26T07:34:10.622Z,5.4
2019-03-26T07:35:01.522Z,5.4
2019-03-26T07:35:52.400Z,5.4
2019-03-26T07:36:43.272Z,5.4
2019-03-26T07:37:44.419Z,5.4
2019-03-26T07:38:29.946Z,5.4
2019-03-26T07:39:20.841Z,5.4
2019-03-26T07:40:11.712Z,5.4
2019-03-26T07:41:02.584Z,5.4
2019-03-26T07:41:53.451Z,5.4
2019-03-26T07:42:44.350Z,5.4
2019-03-26T07:43:35.223Z,5.4
2019-03-26T07:44:26.127Z,5.4
2019-03-26T07:45:16.995Z,5.5
2019-03-26T07:46:07.860Z,5.5
2019-03-26T07:46:58.730Z,5.5
2019-03-26T07:47:49.610Z,5.5
2019-03-26T07:48:40.484Z,5.5
2019-03-26T07:49:31.390Z,5.5
2019-03-26T07:50:22.261Z,5.5
2019-03-26T07:51:13.127Z,5.5
2019-03-26T07:52:03.992Z,5.5
2019-03-26T07:52:54.864Z,5.5
2019-03-26T07:53:45.740Z,5.5
2019-03-26T07:54:36.640Z,5.5
2019-03-26T07:55:27.508Z,5.5
2019-03-26T07:56:18.374Z,5.5
2019-03-26T07:57:09.247Z,5.5
2019-03-26T07:58:00.125Z,5.6
2019-03-26T07:58:50.997Z,5.6
2019-03-26T07:59:41.897Z,5.6
2019-03-26T08:00:32.770Z,5.6
2019-03-26T08:01:23.637Z,5.6
2019-03-26T08:02:14.504Z,5.6
2019-03-26T08:03:05.370Z,5.6
2019-03-26T08:03:56.251Z,5.6
2019-03-26T08:04:47.152Z,5.6
2019-03-26T08:05:38.021Z,5.6
2019-03-26T08:06:28.896Z,5.6
2019-03-26T08:07:19.762Z,5.6
2019-03-26T08:08:10.633Z,5.6
2019-03-26T08:09:01.511Z,5.6
2019-03-26T08:09:52.409Z,5.6
2019-03-26T08:10:43.276Z,5.6
2019-03-26T08:11:34.152Z,5.6
2019-03-26T08:12:25.020Z,5.6
2019-03-26T08:13:15.911Z,5.6
2019-03-26T08:14:06.804Z,5.6
2019-03-26T08:14:57.744Z,5.6
2019-03-26T08:15:48.619Z,5.6
2019-03-26T08:16:39.492Z,5.6
2019-03-26T08:17:30.367Z,5.6
2019-03-26T08:18:21.252Z,5.6
2019-03-26T08:19:12.119Z,5.6
2019-03-26T08:20:03.011Z,5.6
2019-03-26T08:20:53.873Z,5.6
2019-03-26T08:21:44.742Z,5.6
2019-03-26T08:22:35.610Z,5.6
2019-03-26T08:23:26.474Z,5.6
2019-03-26T08:24:17.340Z,5.6
2019-03-26T08:25:08.240Z,5.6
2019-03-26T08:25:59.109Z,5.6
2019-03-26T08:26:51.967Z,5.6
2019-03-26T08:27:43.054Z,5.6
2019-03-26T08:28:33.922Z,5.6
2019-03-26T08:29:24.795Z,5.6
2019-03-26T08:30:15.695Z,5.6
2019-03-26T08:31:06.563Z,5.6
2019-03-26T08:31:57.432Z,5.7
2019-03-26T08:32:48.300Z,5.7
2019-03-26T08:33:39.170Z,5.7
2019-03-26T08:34:30.036Z,5.7
2019-03-26T08:35:20.933Z,5.7
2019-03-26T08:36:11.798Z,5.7
2019-03-26T08:37:02.667Z,5.7
2019-03-26T08:37:53.535Z,5.7
2019-03-26T08:38:44.412Z,5.7
2019-03-26T08:39:35.317Z,5.7
2019-03-26T08:40:26.182Z,5.7
2019-03-26T08:41:17.089Z,5.7
2019-03-26T08:42:07.958Z,5.7
2019-03-26T08:42:58.824Z,5.7
2019-03-26T08:43:49.753Z,5.7
2019-03-26T08:44:41.649Z,5.7
2019-03-26T08:45:32.570Z,5.8
2019-03-26T08:46:23.448Z,5.8
2019-03-26T08:47:14.322Z,5.8
2019-03-26T08:48:05.190Z,5.8
2019-03-26T08:48:56.103Z,5.8
2019-03-26T08:49:46.970Z,5.8
2019-03-26T08:50:37.841Z,5.9
2019-03-26T08:51:28.714Z,5.9
2019-03-26T08:52:19.589Z,5.9
2019-03-26T08:53:10.455Z,5.9
2019-03-26T08:54:01.325Z,5.9
2019-03-26T08:54:52.219Z,5.9
2019-03-26T08:55:43.086Z,5.9
2019-03-26T08:56:33.955Z,5.9
2019-03-26T08:57:24.826Z,5.9
2019-03-26T08:58:15.694Z,5.9
2019-03-26T08:59:06.588Z,5.9
2019-03-26T08:59:57.456Z,5.9
2019-03-26T09:00:48.322Z,5.9
2019-03-26T09:01:39.190Z,5.9
2019-03-26T09:02:30.057Z,5.9
2019-03-26T09:03:20.926Z,5.9
2019-03-26T09:04:11.844Z,5.9
2019-03-26T09:05:02.748Z,5.9
2019-03-26T09:05:53.628Z,5.9
2019-03-26T09:06:44.495Z,5.9
2019-03-26T09:07:35.369Z,5.9
2019-03-26T09:08:26.240Z,5.9
2019-03-26T09:09:17.104Z,5.9
2019-03-26T09:10:08.000Z,5.9
2019-03-26T09:10:58.872Z,5.9
2019-03-26T09:11:49.743Z,5.9
2019-03-26T09:12:40.611Z,5.9
2019-03-26T09:13:36.485Z,5.9
2019-03-26T09:14:27.378Z,6
2019-03-26T09:15:18.252Z,6
2019-03-26T09:16:09.117Z,6
2019-03-26T09:16:59.983Z,6
2019-03-26T09:17:50.852Z,6
2019-03-26T09:18:41.719Z,6.1
2019-03-26T09:19:32.610Z,6.1
2019-03-26T09:20:23.511Z,6.1
2019-03-26T09:21:14.383Z,6.1
2019-03-26T09:22:05.258Z,6.1
2019-03-26T09:22:56.137Z,6.1
2019-03-26T09:23:47.005Z,6.1
2019-03-26T09:24:37.867Z,6.1
2019-03-26T09:25:28.763Z,6.1
2019-03-26T09:26:19.870Z,6.1
2019-03-26T09:27:10.746Z,6.1
2019-03-26T09:28:01.610Z,6.1
2019-03-26T09:28:52.482Z,6.1
2019-03-26T09:29:43.367Z,6.1
2019-03-26T09:30:34.263Z,6.1
2019-03-26T09:31:25.132Z,6.1
2019-03-26T09:32:16.001Z,6.1
2019-03-26T09:33:06.873Z,6.1
2019-03-26T09:33:57.746Z,6.1
2019-03-26T09:34:48.618Z,6.1
2019-03-26T09:35:39.514Z,6.1
2019-03-26T09:36:30.382Z,6.1
2019-03-26T09:37:21.252Z,6.1
2019-03-26T09:38:12.120Z,6.1
2019-03-26T09:39:02.991Z,6.1
2019-03-26T09:39:53.864Z,6.1
2019-03-26T09:40:44.759Z,6.1
2019-03-26T09:41:35.640Z,6.1
2019-03-26T09:42:26.507Z,6.1
2019-03-26T09:43:17.383Z,6.1
2019-03-26T09:44:08.252Z,6.1
2019-03-26T09:44:59.123Z,6.1
2019-03-26T09:45:50.025Z,6.1
2019-03-26T09:46:40.895Z,6.1
2019-03-26T09:47:31.760Z,6.2
2019-03-26T09:48:22.628Z,6.2
2019-03-26T09:49:13.557Z,6.2
2019-03-26T09:50:04.423Z,6.2
2019-03-26T09:50:55.320Z,6.2
2019-03-26T09:51:46.205Z,6.2
2019-03-26T09:52:37.083Z,6.2
2019-03-26T09:53:27.948Z,6.2
2019-03-26T09:54:18.821Z,6.2
2019-03-26T09:55:09.691Z,6.2
2019-03-26T09:56:00.589Z,6.2
2019-03-26T09:56:51.457Z,6.2
2019-03-26T09:57:42.327Z,6.2
2019-03-26T09:58:33.204Z,6.2
2019-03-26T09:59:24.089Z,6.2
2019-03-26T10:00:14.958Z,6.2
2019-03-26T10:01:05.854Z,6.2
2019-03-26T10:01:56.719Z,6.2
2019-03-26T10:02:47.589Z,6.2
2019-03-26T10:03:38.458Z,6.2
2019-03-26T10:04:29.327Z,6.2
2019-03-26T10:05:20.199Z,6.2
2019-03-26T10:06:22.742Z,6.2
2019-03-26T10:07:06.910Z,6.2
2019-03-26T10:07:57.776Z,6.2
2019-03-26T10:08:52.527Z,6.2
2019-03-26T10:09:43.777Z,6.2
2019-03-26T10:10:34.654Z,6.2
2019-03-26T10:11:27.263Z,6.2
2019-03-26T10:12:18.128Z,6.3
2019-03-26T10:13:08.997Z,6.3
2019-03-26T10:13:59.867Z,6.3
2019-03-26T10:14:50.738Z,6.3
2019-03-26T10:15:41.604Z,6.3
2019-03-26T10:16:32.495Z,6.3
2019-03-26T10:17:23.371Z,6.4
2019-03-26T10:18:14.241Z,6.4
2019-03-26T10:19:05.126Z,6.4
2019-03-26T10:19:55.987Z,6.4
2019-03-26T10:20:46.858Z,6.4
2019-03-26T10:21:37.755Z,6.4
2019-03-26T10:22:28.625Z,6.4
2019-03-26T10:23:19.498Z,6.4
2019-03-26T10:24:10.372Z,6.4
2019-03-26T10:25:01.245Z,6.4
2019-03-26T10:25:52.109Z,6.4
2019-03-26T10:26:43.007Z,6.4
2019-03-26T10:27:35.157Z,6.4
2019-03-26T10:28:26.156Z,6.4
2019-03-26T10:29:29.390Z,6.4
2019-03-26T10:30:12.832Z,6.4
2019-03-26T10:31:03.699Z,6.4
2019-03-26T10:31:54.609Z,6.4
2019-03-26T10:32:45.477Z,6.4
2019-03-26T10:33:36.370Z,6.4
2019-03-26T10:34:27.264Z,6.4
2019-03-26T10:35:18.132Z,6.4
2019-03-26T10:36:08.997Z,6.4
2019-03-26T10:36:59.891Z,6.4
2019-03-26T10:37:50.778Z,6.4
2019-03-26T10:38:41.645Z,6.4
2019-03-26T10:39:32.516Z,6.4
2019-03-26T10:40:23.409Z,6.4
2019-03-26T10:41:14.276Z,6.4
2019-03-26T10:42:06.962Z,6.4
2019-03-26T10:42:57.925Z,6.4
2019-03-26T10:43:48.789Z,6.4
2019-03-26T10:44:39.658Z,6.4
2019-03-26T10:45:30.523Z,6.4
2019-03-26T10:46:21.388Z,6.4
2019-03-26T10:47:12.287Z,6.4
2019-03-26T10:48:03.160Z,6.4
2019-03-26T10:48:54.028Z,6.4
2019-03-26T10:49:44.897Z,6.4
2019-03-26T10:50:35.764Z,6.4
2019-03-26T10:51:26.634Z,6.4
2019-03-26T10:52:17.533Z,6.4
2019-03-26T10:53:08.411Z,6.5
2019-03-26T10:53:59.280Z,6.5
2019-03-26T10:54:50.144Z,6.5
2019-03-26T10:55:41.013Z,6.5
2019-03-26T10:56:32.692Z,6.6
2019-03-26T10:57:23.690Z,6.6
2019-03-26T10:58:14.575Z,6.6
2019-03-26T10:59:05.448Z,6.6
2019-03-26T10:59:56.314Z,6.6
2019-03-26T11:00:47.180Z,6.6
2019-03-26T11:01:38.044Z,6.6
2019-03-26T11:02:28.944Z,6.6
2019-03-26T11:03:19.818Z,6.6
2019-03-26T11:04:10.762Z,6.6
2019-03-26T11:05:01.629Z,6.6
2019-03-26T11:05:52.502Z,6.6
2019-03-26T11:06:43.373Z,6.6
2019-03-26T11:07:34.264Z,6.7
2019-03-26T11:08:25.133Z,6.7
2019-03-26T11:09:23.218Z,6.7
2019-03-26T11:10:11.809Z,6.7
2019-03-26T11:11:02.676Z,6.7
2019-03-26T11:11:53.569Z,6.7
2019-03-26T11:12:44.433Z,6.7
2019-03-26T11:13:35.301Z,6.7
2019-03-26T11:14:26.169Z,6.7
2019-03-26T11:15:17.032Z,6.7
2019-03-26T11:16:07.900Z,6.7
2019-03-26T11:16:58.800Z,6.7
2019-03-26T11:17:49.666Z,6.7
2019-03-26T11:18:40.531Z,6.7
2019-03-26T11:19:31.400Z,6.7
2019-03-26T11:20:22.267Z,6.7
2019-03-26T11:21:13.132Z,6.7
2019-03-26T11:22:04.033Z,6.7
2019-03-26T11:22:54.914Z,6.7
2019-03-26T11:23:45.779Z,6.7
2019-03-26T11:24:36.648Z,6.7
2019-03-26T11:25:27.518Z,6.8
2019-03-26T11:26:18.391Z,6.8
2019-03-26T11:27:09.290Z,6.8
2019-03-26T11:28:00.160Z,6.8
2019-03-26T11:28:51.026Z,6.8
2019-03-26T11:29:41.894Z,6.8
2019-03-26T11:30:32.764Z,6.8
2019-03-26T11:31:23.635Z,6.8
2019-03-26T11:32:14.524Z,6.8
2019-03-26T11:33:05.392Z,6.8
2019-03-26T11:33:56.258Z,6.9
2019-03-26T11:34:47.131Z,6.9
2019-03-26T11:35:37.996Z,6.9
2019-03-26T11:36:28.865Z,6.9
2019-03-26T11:37:19.762Z,6.9
2019-03-26T11:38:10.629Z,6.9
2019-03-26T11:39:01.507Z,6.9
2019-03-26T11:39:52.375Z,6.9